createdAt,value
2022-08-19T00:02:10.557Z,7.13
2022-08-19T00:04:37.953Z,10.23
2022-08-19T00:07:06.751Z,7.93
2022-08-19T00:09:35.052Z,7.77
2022-08-19T00:12:03.594Z,7.60
2022-08-19T00:14:33.872Z,7.63
2022-08-19T00:17:04.067Z,7.60
2022-08-19T00:19:31.306Z,9.03
2022-08-19T00:21:58.202Z,7.73
2022-08-19T00:24:25.830Z,10.20
2022-08-19T00:26:56.126Z,7.33
2022-08-19T00:29:24.120Z,8.30
2022-08-19T00:31:54.509Z,9.93
2022-08-19T00:34:22.810Z,7.73
2022-08-19T00:36:50.123Z,7.50
2022-08-19T00:39:18.243Z,8.43
2022-08-19T00:41:48.518Z,8.83
2022-08-19T00:44:26.909Z,7.80
2022-08-19T00:46:58.745Z,7.60
2022-08-19T00:49:31.126Z,8.30
2022-08-19T00:52:03.146Z,6.83
2022-08-19T00:54:32.468Z,7.77
2022-08-19T00:57:00.816Z,7.90
2022-08-19T00:59:56.104Z,8.00
2022-08-19T01:02:18.051Z,7.87
2022-08-19T01:04:44.931Z,11.10
2022-08-19T01:07:15.142Z,8.77
2022-08-19T01:09:45.017Z,10.40
2022-08-19T01:12:12.882Z,12.20
2022-08-19T01:14:41.065Z,11.70
2022-08-19T01:17:11.903Z,10.57
2022-08-19T01:19:43.700Z,8.90
2022-08-19T01:22:34.190Z,9.47
2022-08-19T01:25:02.179Z,9.87
2022-08-19T01:27:45.906Z,12.07
2022-08-19T01:30:16.515Z,9.97
2022-08-19T01:32:44.318Z,7.93
2022-08-19T01:35:13.653Z,10.03
2022-08-19T01:37:56.198Z,10.43
2022-08-19T01:40:26.148Z,9.50
2022-08-19T01:42:54.678Z,9.70
2022-08-19T01:45:24.155Z,9.13
2022-08-19T01:48:01.756Z,10.50
2022-08-19T01:50:31.818Z,9.63
2022-08-19T01:53:06.201Z,12.57
2022-08-19T01:55:40.609Z,10.17
2022-08-19T01:58:14.762Z,9.77
2022-08-19T02:00:42.358Z,10.70
2022-08-19T02:03:10.375Z,13.07
2022-08-19T02:05:37.765Z,11.60
2022-08-19T02:08:05.507Z,15.00
2022-08-19T02:10:33.145Z,10.67
2022-08-19T02:13:00.997Z,10.77
2022-08-19T02:15:28.889Z,13.30
2022-08-19T02:17:55.803Z,10.77
2022-08-19T02:20:23.490Z,10.40
2022-08-19T02:22:53.648Z,11.10
2022-08-19T02:25:23.582Z,9.93
2022-08-19T02:27:51.697Z,10.30
2022-08-19T02:30:19.984Z,10.40
2022-08-19T02:32:48.066Z,14.30
2022-08-19T02:35:15.246Z,11.90
2022-08-19T02:38:01.794Z,15.23
2022-08-19T02:40:35.603Z,11.03
2022-08-19T02:43:10.000Z,11.00
2022-08-19T02:45:41.460Z,12.70
2022-08-19T02:48:12.739Z,10.90
2022-08-19T02:50:56.457Z,11.80
2022-08-19T02:53:26.136Z,11.07
2022-08-19T02:55:53.445Z,14.10
2022-08-19T02:58:22.271Z,12.57
2022-08-19T03:00:52.444Z,12.07
2022-08-19T03:03:20.459Z,13.07
2022-08-19T03:05:56.315Z,10.53
2022-08-19T03:08:26.550Z,11.30
2022-08-19T03:10:54.284Z,10.73
2022-08-19T03:13:22.494Z,13.80
2022-08-19T03:15:49.596Z,11.30
2022-08-19T03:18:18.121Z,10.30
2022-08-19T03:20:48.108Z,11.33
2022-08-19T03:23:17.112Z,11.43
2022-08-19T03:25:47.598Z,11.03
2022-08-19T03:28:31.419Z,14.27
2022-08-19T03:31:05.635Z,11.60
2022-08-19T03:33:52.835Z,13.33
2022-08-19T03:36:25.690Z,12.20
2022-08-19T03:38:59.623Z,11.90
2022-08-19T03:41:34.382Z,11.90
2022-08-19T03:44:16.670Z,13.27
2022-08-19T03:46:46.759Z,12.23
2022-08-19T03:49:14.167Z,12.03
2022-08-19T03:51:42.790Z,13.60
2022-08-19T03:54:12.074Z,10.77
2022-08-19T03:56:40.527Z,12.30
2022-08-19T03:59:14.451Z,12.97
2022-08-19T04:01:43.163Z,12.90
2022-08-19T04:04:13.229Z,15.47
2022-08-19T04:06:40.637Z,13.33
2022-08-19T04:09:09.894Z,14.17
2022-08-19T04:11:44.271Z,11.93
2022-08-19T04:14:21.855Z,14.53
2022-08-19T04:16:50.114Z,13.43
2022-08-19T04:19:18.357Z,13.17
2022-08-19T04:21:48.192Z,13.50
2022-08-19T04:24:16.150Z,14.73
2022-08-19T04:26:43.658Z,13.20
2022-08-19T04:29:17.131Z,14.27
2022-08-19T04:31:46.147Z,13.80
2022-08-19T04:34:15.516Z,14.80
2022-08-19T04:36:45.599Z,15.07
2022-08-19T04:39:17.487Z,15.30
2022-08-19T04:42:05.033Z,15.87
2022-08-19T04:44:33.502Z,18.30
2022-08-19T04:47:10.955Z,18.87
2022-08-19T04:49:42.377Z,20.60
2022-08-19T04:52:10.530Z,18.80
2022-08-19T04:54:39.361Z,18.20
2022-08-19T04:57:11.310Z,21.60
2022-08-19T04:59:41.056Z,20.97
2022-08-19T05:02:09.895Z,20.43
2022-08-19T05:04:40.414Z,23.37
2022-08-19T05:07:09.228Z,31.70
2022-08-19T05:09:57.798Z,28.23
2022-08-19T05:12:26.755Z,24.23
2022-08-19T05:14:57.910Z,22.87
2022-08-19T05:17:28.960Z,22.53
2022-08-19T05:20:17.195Z,25.30
2022-08-19T05:22:47.235Z,24.43
2022-08-19T05:25:19.572Z,23.83
2022-08-19T05:27:47.136Z,23.30
2022-08-19T05:30:15.822Z,23.23
2022-08-19T05:32:44.184Z,23.97
2022-08-19T05:35:12.951Z,27.03
2022-08-19T05:37:44.835Z,25.63
2022-08-19T05:40:12.174Z,26.13
2022-08-19T05:42:39.449Z,26.30
2022-08-19T05:45:08.164Z,23.50
2022-08-19T05:47:36.171Z,24.73
2022-08-19T05:50:10.983Z,25.40
2022-08-19T05:52:39.215Z,25.10
2022-08-19T05:55:12.001Z,25.97
2022-08-19T05:57:39.377Z,23.83
2022-08-19T06:00:11.248Z,25.03
2022-08-19T06:02:39.034Z,24.70
2022-08-19T06:05:10.414Z,27.47
2022-08-19T06:07:39.235Z,23.03
2022-08-19T06:10:08.447Z,25.10
2022-08-19T06:12:36.618Z,23.37
2022-08-19T06:15:07.518Z,25.80
2022-08-19T06:17:36.355Z,23.93
2022-08-19T06:20:09.820Z,24.70
2022-08-19T06:22:41.740Z,22.70
2022-08-19T06:25:13.257Z,21.80
2022-08-19T06:30:31.363Z,23.20
2022-08-19T06:32:58.238Z,24.07
2022-08-19T06:35:25.496Z,20.93
2022-08-19T06:37:53.585Z,22.63
2022-08-19T06:40:21.621Z,21.83
2022-08-19T06:42:54.548Z,22.63
2022-08-19T06:45:24.946Z,22.50
2022-08-19T06:48:02.111Z,23.80
2022-08-19T06:50:31.097Z,22.53
2022-08-19T06:52:58.215Z,21.90
2022-08-19T06:55:33.455Z,23.05
2022-08-19T06:58:04.776Z,22.02
2022-08-19T07:03:03.046Z,17.55
2022-08-19T07:05:33.293Z,17.88
2022-08-19T07:08:04.809Z,18.10
2022-08-19T07:10:33.920Z,21.52
2022-08-19T07:13:01.274Z,22.75
2022-08-19T07:15:28.326Z,20.10
2022-08-19T07:17:58.395Z,19.90
2022-08-19T07:20:28.508Z,22.15
2022-08-19T07:22:56.094Z,20.85
2022-08-19T07:25:32.424Z,21.05
2022-08-19T07:28:01.420Z,21.02
2022-08-19T07:30:28.793Z,17.80
2022-08-19T07:32:58.396Z,20.33
2022-08-19T07:35:26.103Z,21.43
2022-08-19T07:37:56.224Z,21.23
2022-08-19T07:40:23.467Z,21.97
2022-08-19T07:42:50.444Z,21.13
2022-08-19T07:45:17.505Z,24.27
2022-08-19T07:47:50.423Z,26.43
2022-08-19T07:50:20.443Z,26.93
2022-08-19T07:52:49.136Z,26.77
2022-08-19T07:55:40.674Z,24.57
2022-08-19T07:58:09.868Z,22.03
2022-08-19T08:00:37.024Z,26.70
2022-08-19T08:03:05.711Z,29.77
2022-08-19T08:05:51.334Z,28.33
2022-08-19T08:08:36.826Z,29.83
2022-08-19T08:11:07.682Z,30.87
2022-08-19T08:13:39.078Z,33.30
2022-08-19T08:16:07.588Z,25.63
2022-08-19T08:18:43.147Z,29.23
2022-08-19T08:21:10.276Z,31.23
2022-08-19T08:23:37.198Z,28.07
2022-08-19T08:26:06.880Z,27.23
2022-08-19T08:28:40.356Z,27.80
2022-08-19T08:31:09.554Z,30.60
2022-08-19T08:33:37.096Z,28.80
2022-08-19T08:36:06.456Z,29.13
2022-08-19T08:38:38.927Z,32.50
2022-08-19T08:41:29.690Z,32.13
2022-08-19T08:43:58.518Z,32.05
2022-08-19T08:46:36.239Z,31.27
2022-08-19T08:49:09.748Z,31.73
2022-08-19T08:52:05.448Z,32.08
2022-08-19T08:54:54.728Z,33.90
2022-08-19T08:57:37.000Z,34.05
2022-08-19T09:00:20.931Z,32.97
2022-08-19T09:02:50.434Z,33.20
2022-08-19T09:05:22.233Z,29.85
2022-08-19T09:08:05.150Z,34.00
2022-08-19T09:10:44.833Z,29.88
2022-08-19T09:13:54.890Z,28.70
2022-08-19T09:16:28.025Z,23.17
2022-08-19T09:18:59.986Z,21.23
2022-08-19T09:21:33.170Z,22.30
2022-08-19T09:24:05.480Z,22.40
2022-08-19T09:26:47.208Z,23.15
2022-08-19T09:29:18.411Z,22.55
2022-08-19T09:31:48.976Z,24.77
2022-08-19T09:34:20.673Z,21.58
2022-08-19T09:36:56.862Z,22.80
2022-08-19T09:39:24.052Z,22.80
2022-08-19T09:41:51.327Z,22.67
2022-08-19T09:44:21.268Z,18.55
2022-08-19T09:46:49.346Z,19.75
2022-08-19T09:49:22.788Z,20.08
2022-08-19T09:51:56.305Z,20.08
2022-08-19T09:54:25.352Z,17.50
2022-08-19T09:56:59.882Z,16.98
2022-08-19T09:59:28.140Z,18.30
2022-08-19T10:01:55.506Z,16.65
2022-08-19T10:04:49.798Z,16.00
2022-08-19T10:07:17.599Z,21.00
2022-08-19T10:09:45.085Z,16.13
2022-08-19T10:12:17.816Z,17.83
2022-08-19T10:14:47.491Z,12.27
2022-08-19T10:17:17.655Z,12.68
2022-08-19T10:19:55.286Z,13.13
2022-08-19T10:22:25.499Z,13.27
2022-08-19T10:24:54.382Z,12.50
2022-08-19T10:27:22.367Z,14.38
2022-08-19T10:29:49.501Z,16.80
2022-08-19T10:32:17.397Z,16.38
2022-08-19T10:34:48.205Z,14.13
2022-08-19T10:37:23.638Z,11.73
2022-08-19T10:39:56.365Z,14.67
2022-08-19T10:42:23.508Z,14.10
2022-08-19T10:44:51.832Z,20.87
2022-08-19T10:47:25.488Z,13.57
2022-08-19T10:50:14.352Z,13.98
2022-08-19T10:52:50.613Z,15.30
2022-08-19T10:55:40.375Z,15.30
2022-08-19T10:58:13.431Z,14.23
2022-08-19T11:00:41.700Z,15.60
2022-08-19T11:03:09.507Z,15.13
2022-08-19T11:05:39.844Z,14.97
2022-08-19T11:08:23.303Z,14.90
2022-08-19T11:11:01.687Z,13.83
2022-08-19T11:13:30.449Z,14.07
2022-08-19T11:16:09.654Z,14.43
2022-08-19T11:18:40.328Z,11.50
2022-08-19T11:21:21.100Z,10.80
2022-08-19T11:23:50.368Z,11.07
2022-08-19T11:26:18.722Z,11.63
2022-08-19T11:28:46.218Z,12.10
2022-08-19T11:31:15.871Z,12.37
2022-08-19T11:33:47.648Z,11.17
2022-08-19T11:36:16.374Z,11.80
2022-08-19T11:38:45.037Z,11.43
2022-08-19T11:41:12.605Z,8.73
2022-08-19T11:43:40.814Z,10.10
2022-08-19T11:46:16.004Z,12.23
2022-08-19T11:48:44.387Z,10.73
2022-08-19T11:51:15.595Z,10.47
2022-08-19T11:53:42.993Z,9.57
2022-08-19T11:56:10.877Z,8.77
2022-08-19T11:58:38.743Z,9.90
2022-08-19T12:01:10.284Z,10.23
2022-08-19T12:03:39.423Z,10.20
2022-08-19T12:06:08.523Z,12.37
2022-08-19T12:08:37.061Z,8.70
2022-08-19T12:11:05.113Z,9.97
2022-08-19T12:13:33.338Z,9.93
2022-08-19T12:16:00.939Z,10.33
2022-08-19T12:18:28.356Z,10.77
2022-08-19T12:20:55.753Z,10.10
2022-08-19T12:23:24.107Z,8.40
2022-08-19T12:25:54.178Z,10.23
2022-08-19T12:28:22.658Z,8.83
2022-08-19T12:30:52.211Z,7.73
2022-08-19T12:33:25.137Z,8.23
2022-08-19T12:35:52.987Z,8.67
2022-08-19T12:38:21.051Z,8.77
2022-08-19T12:40:49.805Z,9.70
2022-08-19T12:43:17.184Z,10.47
2022-08-19T12:45:46.098Z,9.23
2022-08-19T12:48:33.544Z,12.90
2022-08-19T12:51:08.231Z,9.03
2022-08-19T12:53:39.168Z,8.70
2022-08-19T12:56:11.532Z,8.50
2022-08-19T12:58:49.104Z,9.57
2022-08-19T13:01:22.561Z,10.13
2022-08-19T13:03:54.814Z,9.43
2022-08-19T13:06:22.462Z,9.30
2022-08-19T13:08:49.721Z,9.87
2022-08-19T13:11:21.264Z,8.37
2022-08-19T13:13:51.297Z,10.03
2022-08-19T13:16:21.255Z,10.63
2022-08-19T13:18:49.097Z,8.60
2022-08-19T13:21:16.532Z,9.97
2022-08-19T13:23:43.764Z,7.43
2022-08-19T13:26:12.452Z,7.90
2022-08-19T13:28:59.204Z,8.33
2022-08-19T13:31:47.709Z,7.60
2022-08-19T13:34:16.611Z,7.03
2022-08-19T13:36:44.069Z,6.87
2022-08-19T13:39:13.749Z,7.73
2022-08-19T13:41:48.914Z,10.00
2022-08-19T13:44:19.258Z,6.40
2022-08-19T13:46:50.457Z,9.20
2022-08-19T13:49:21.622Z,7.47
2022-08-19T13:51:49.341Z,7.13
2022-08-19T13:54:17.649Z,7.33
2022-08-19T13:56:47.154Z,10.53
2022-08-19T13:59:14.448Z,7.10
2022-08-19T14:01:43.910Z,10.47
2022-08-19T14:04:11.204Z,10.57
2022-08-19T14:06:38.355Z,9.40
2022-08-19T14:09:06.791Z,11.00
2022-08-19T14:11:33.756Z,10.63
2022-08-19T14:14:00.846Z,7.70
2022-08-19T14:16:29.259Z,8.63
2022-08-19T14:18:57.419Z,6.97
2022-08-19T14:21:26.400Z,6.70
2022-08-19T14:23:55.414Z,8.90
2022-08-19T14:26:24.160Z,7.33
2022-08-19T14:28:53.939Z,8.27
2022-08-19T14:31:29.004Z,6.43
2022-08-19T14:33:57.871Z,6.90
2022-08-19T14:36:25.140Z,6.03
2022-08-19T14:38:52.437Z,9.93
2022-08-19T14:41:22.923Z,6.90
2022-08-19T14:43:52.955Z,6.73
2022-08-19T14:46:22.751Z,8.97
2022-08-19T14:48:51.788Z,7.57
2022-08-19T14:51:21.473Z,6.53
2022-08-19T14:53:53.342Z,7.67
2022-08-19T14:56:24.855Z,4.43
2022-08-19T14:58:53.231Z,4.83
2022-08-19T15:01:22.990Z,8.33
2022-08-19T15:03:57.317Z,4.23
2022-08-19T15:06:26.539Z,7.10
2022-08-19T15:08:55.255Z,4.13
2022-08-19T15:11:26.118Z,5.63
2022-08-19T15:13:54.114Z,5.70
2022-08-19T15:16:22.388Z,6.00
2022-08-19T15:18:55.534Z,4.20
2022-08-19T15:21:27.374Z,4.53
2022-08-19T15:23:57.343Z,4.23
2022-08-19T15:26:26.342Z,5.73
2022-08-19T15:28:53.721Z,5.33
2022-08-19T15:31:28.448Z,4.20
2022-08-19T15:33:59.840Z,4.30
2022-08-19T15:36:28.167Z,5.13
2022-08-19T15:38:58.238Z,4.53
2022-08-19T15:41:34.250Z,5.70
2022-08-19T15:44:10.353Z,8.83
2022-08-19T15:46:40.313Z,5.27
2022-08-19T15:49:08.404Z,5.27
2022-08-19T15:51:37.036Z,3.83
2022-08-19T15:54:07.056Z,3.50
2022-08-19T15:56:57.941Z,3.77
2022-08-19T15:59:47.052Z,8.27
2022-08-19T16:02:38.223Z,3.90
2022-08-19T16:05:28.838Z,5.33
2022-08-19T16:07:57.729Z,7.50
2022-08-19T16:10:30.044Z,8.77
2022-08-19T16:12:59.691Z,6.20
2022-08-19T16:15:32.811Z,7.07
2022-08-19T16:18:05.261Z,4.20
2022-08-19T16:20:37.011Z,3.87
2022-08-19T16:23:05.941Z,4.17
2022-08-19T16:25:37.535Z,4.20
2022-08-19T16:28:07.953Z,6.47
2022-08-19T16:30:39.420Z,3.50
2022-08-19T16:33:12.737Z,4.97
2022-08-19T16:35:58.442Z,3.43
2022-08-19T16:38:30.784Z,5.20
2022-08-19T16:41:02.000Z,4.77
2022-08-19T16:43:35.103Z,4.90
2022-08-19T16:46:03.568Z,4.00
2022-08-19T16:48:31.377Z,6.57
2022-08-19T16:51:02.999Z,4.00
2022-08-19T16:53:33.042Z,3.00
2022-08-19T16:56:01.849Z,4.67
2022-08-19T16:58:34.473Z,3.47
2022-08-19T17:01:06.248Z,3.53
2022-08-19T17:03:36.496Z,3.03
2022-08-19T17:06:17.837Z,3.70
2022-08-19T17:08:50.187Z,3.57
2022-08-19T17:11:19.464Z,4.97
2022-08-19T17:13:48.549Z,3.57
2022-08-19T17:16:24.961Z,5.10
2022-08-19T17:18:54.161Z,4.57
2022-08-19T17:21:28.546Z,2.07
2022-08-19T17:23:57.163Z,3.33
2022-08-19T17:26:25.589Z,3.47
2022-08-19T17:28:55.260Z,6.33
2022-08-19T17:31:25.506Z,2.90
2022-08-19T17:33:52.980Z,3.03
2022-08-19T17:36:25.215Z,3.87
2022-08-19T17:38:55.576Z,5.33
2022-08-19T17:41:25.045Z,2.97
2022-08-19T17:43:53.134Z,9.00
2022-08-19T17:46:20.849Z,6.77
2022-08-19T17:48:52.771Z,7.23
2022-08-19T17:51:27.512Z,4.63
2022-08-19T17:53:55.216Z,4.70
2022-08-19T17:56:23.659Z,3.50
2022-08-19T17:58:59.746Z,7.47
2022-08-19T18:01:35.504Z,5.80
2022-08-19T18:04:19.094Z,8.13
2022-08-19T18:06:53.261Z,3.33
2022-08-19T18:09:25.181Z,5.37
2022-08-19T18:11:55.670Z,6.47
2022-08-19T18:14:33.310Z,3.27
2022-08-19T18:17:14.307Z,5.07
2022-08-19T18:19:43.969Z,4.20
2022-08-19T18:22:37.049Z,4.33
2022-08-19T18:25:12.089Z,4.07
2022-08-19T18:27:39.677Z,6.17
2022-08-19T18:30:08.750Z,3.77
2022-08-19T18:32:45.680Z,8.97
2022-08-19T18:35:16.934Z,11.47
2022-08-19T18:37:49.775Z,12.33
2022-08-19T18:40:39.758Z,7.27
2022-08-19T18:43:26.031Z,6.30
2022-08-19T18:46:39.520Z,5.97
2022-08-19T18:49:11.225Z,4.87
2022-08-19T18:51:38.435Z,7.70
2022-08-19T18:54:05.529Z,5.43
2022-08-19T18:56:33.488Z,5.13
2022-08-19T18:59:01.069Z,5.00
2022-08-19T19:01:37.042Z,5.87
2022-08-19T19:04:10.657Z,3.33
2022-08-19T19:06:40.736Z,4.37
2022-08-19T19:09:13.819Z,6.80
2022-08-19T19:11:45.538Z,6.83
2022-08-19T19:14:32.729Z,3.80
2022-08-19T19:17:07.280Z,4.53
2022-08-19T19:19:34.942Z,3.60
2022-08-19T19:22:03.000Z,8.00
2022-08-19T19:24:33.479Z,4.03
2022-08-19T19:27:06.954Z,3.40
2022-08-19T19:29:37.543Z,3.17
2022-08-19T19:32:07.292Z,4.10
2022-08-19T19:34:35.150Z,3.37
2022-08-19T19:37:02.577Z,5.10
2022-08-19T19:39:44.837Z,2.40
2022-08-19T19:42:20.537Z,3.97
2022-08-19T19:44:50.483Z,7.20
2022-08-19T19:47:19.248Z,3.93
2022-08-19T19:50:13.360Z,2.83
2022-08-19T19:52:39.995Z,1.93
2022-08-19T19:55:09.506Z,2.70
2022-08-19T19:57:40.064Z,5.23
2022-08-19T20:00:08.899Z,2.83
2022-08-19T20:02:36.024Z,5.20
2022-08-19T20:05:03.677Z,4.13
2022-08-19T20:08:06.088Z,2.13
2022-08-19T20:10:33.463Z,3.53
2022-08-19T20:13:05.195Z,2.87
2022-08-19T20:15:32.594Z,5.07
2022-08-19T20:18:01.026Z,5.73
2022-08-19T20:20:28.276Z,4.13
2022-08-19T20:22:55.106Z,3.90
2022-08-19T20:25:22.360Z,3.00
2022-08-19T20:27:49.422Z,2.83
2022-08-19T20:30:19.419Z,2.40
2022-08-19T20:33:14.692Z,2.77
2022-08-19T20:35:43.121Z,2.33
2022-08-19T20:38:13.687Z,2.47
2022-08-19T20:40:41.209Z,2.10
2022-08-19T20:43:12.885Z,2.67
2022-08-19T20:45:41.009Z,2.33
2022-08-19T20:48:12.612Z,2.00
2022-08-19T20:50:40.958Z,3.70
2022-08-19T20:53:14.290Z,5.87
2022-08-19T20:55:44.687Z,3.40
2022-08-19T20:58:13.713Z,3.27
2022-08-19T21:00:42.292Z,3.63
2022-08-19T21:03:09.689Z,2.80
2022-08-19T21:05:37.666Z,2.43
2022-08-19T21:08:05.341Z,1.90
2022-08-19T21:10:32.920Z,3.10
2022-08-19T21:13:00.511Z,3.00
2022-08-19T21:15:28.269Z,1.50
2022-08-19T21:17:56.801Z,3.80
2022-08-19T21:20:25.079Z,2.90
2022-08-19T21:22:52.421Z,3.77
2022-08-19T21:25:19.652Z,2.90
2022-08-19T21:27:48.478Z,2.30
2022-08-19T21:30:15.849Z,2.40
2022-08-19T21:32:43.093Z,1.80
2022-08-19T21:35:10.874Z,3.63
2022-08-19T21:37:38.862Z,3.10
2022-08-19T21:40:07.367Z,4.43
2022-08-19T21:42:35.191Z,2.23
2022-08-19T21:45:03.333Z,3.20
2022-08-19T21:47:31.003Z,2.93
2022-08-19T21:49:58.906Z,1.57
2022-08-19T21:52:28.504Z,4.57
2022-08-19T21:54:56.300Z,2.00
2022-08-19T21:57:24.734Z,1.90
2022-08-19T21:59:53.995Z,3.20
2022-08-19T22:02:24.303Z,2.83
2022-08-19T22:04:52.999Z,1.67
2022-08-19T22:07:22.096Z,3.17
2022-08-19T22:16:25.789Z,2.20
2022-08-19T22:19:13.855Z,2.80
2022-08-19T22:22:01.444Z,3.60
2022-08-19T22:24:53.380Z,3.63
2022-08-19T22:27:40.964Z,2.67
2022-08-19T22:30:33.393Z,3.63
2022-08-19T22:33:22.471Z,2.83
2022-08-19T22:36:10.097Z,2.63
2022-08-19T22:38:58.675Z,3.47
2022-08-19T22:41:46.497Z,4.23
2022-08-19T22:44:34.434Z,4.73
2022-08-19T22:47:21.735Z,3.83
2022-08-19T22:50:13.900Z,2.57
2022-08-19T22:53:02.759Z,5.53
2022-08-19T22:55:49.943Z,2.67
2022-08-19T22:58:38.297Z,3.50
2022-08-19T23:01:30.237Z,3.80
2022-08-19T23:04:18.019Z,4.47
2022-08-19T23:07:06.435Z,3.67
2022-08-19T23:09:53.658Z,3.80
2022-08-19T23:12:45.080Z,2.93
2022-08-19T23:15:33.039Z,3.70
2022-08-19T23:18:23.306Z,4.10
2022-08-19T23:21:11.420Z,4.03
2022-08-19T23:23:58.743Z,2.77
2022-08-19T23:27:04.564Z,3.10
2022-08-19T23:30:10.300Z,3.33
2022-08-19T23:33:00.944Z,3.17
2022-08-19T23:35:48.747Z,4.47
2022-08-19T23:38:36.051Z,2.47
2022-08-19T23:41:23.640Z,2.37
2022-08-19T23:44:14.955Z,4.97
2022-08-19T23:47:04.804Z,3.47
2022-08-19T23:49:54.142Z,4.13
2022-08-19T23:52:50.784Z,2.63
2022-08-19T23:55:41.154Z,2.80
2022-08-19T23:58:30.294Z,2.30
